createdAt,value
2023-04-18T00:00:12.781Z,75.27
2023-04-18T00:02:45.559Z,75.28
2023-04-18T00:05:20.273Z,75.20
2023-04-18T00:07:50.906Z,75.11
2023-04-18T00:10:21.689Z,74.97
2023-04-18T00:12:52.505Z,74.96
2023-04-18T00:15:22.876Z,75.05
2023-04-18T00:17:54.574Z,74.76
2023-04-18T00:20:27.621Z,74.81
2023-04-18T00:23:00.489Z,74.86
2023-04-18T00:25:31.460Z,75.04
2023-04-18T00:28:02.148Z,74.93
2023-04-18T00:30:32.753Z,74.81
2023-04-18T00:33:04.834Z,74.87
2023-04-18T00:35:35.164Z,74.72
2023-04-18T00:38:05.322Z,74.77
2023-04-18T00:40:36.004Z,74.44
2023-04-18T00:43:06.316Z,74.46
2023-04-18T00:45:36.492Z,74.38
2023-04-18T00:48:06.805Z,74.49
2023-04-18T00:50:38.817Z,74.42
2023-04-18T00:53:13.998Z,74.40
2023-04-18T00:55:44.398Z,74.26
2023-04-18T00:58:14.533Z,74.27
2023-04-18T01:00:45.516Z,74.12
2023-04-18T01:03:16.156Z,74.18
2023-04-18T01:05:48.056Z,73.91
2023-04-18T01:08:21.281Z,73.84
2023-04-18T01:10:52.012Z,73.84
2023-04-18T01:13:23.110Z,74.10
2023-04-18T01:15:55.847Z,73.67
2023-04-18T01:18:27.695Z,73.51
2023-04-18T01:20:58.428Z,73.37
2023-04-18T01:23:29.461Z,73.42
2023-04-18T01:26:00.921Z,73.54
2023-04-18T01:28:31.976Z,73.13
2023-04-18T01:31:02.482Z,73.00
2023-04-18T01:33:32.516Z,72.91
2023-04-18T01:36:03.582Z,72.77
2023-04-18T01:38:35.713Z,72.67
2023-04-18T01:41:06.784Z,72.52
2023-04-18T01:43:36.890Z,72.40
2023-04-18T01:46:08.407Z,72.54
2023-04-18T01:48:39.354Z,72.46
2023-04-18T01:51:10.140Z,72.44
2023-04-18T01:53:41.179Z,72.81
2023-04-18T01:56:12.556Z,72.59
2023-04-18T01:58:45.768Z,72.33
2023-04-18T02:01:16.979Z,72.22
2023-04-18T02:03:48.224Z,72.40
2023-04-18T02:06:19.620Z,72.47
2023-04-18T02:08:51.853Z,72.53
2023-04-18T02:11:23.386Z,72.53
2023-04-18T02:14:19.144Z,72.63
2023-04-18T02:16:50.427Z,72.59
2023-04-18T02:19:20.741Z,72.79
2023-04-18T02:21:50.903Z,72.92
2023-04-18T02:24:22.292Z,72.93
2023-04-18T02:26:53.318Z,73.32
2023-04-18T02:29:23.717Z,73.34
2023-04-18T02:31:54.052Z,73.37
2023-04-18T02:34:24.635Z,73.40
2023-04-18T02:36:55.960Z,73.70
2023-04-18T02:39:26.521Z,73.57
2023-04-18T02:41:57.817Z,73.63
2023-04-18T02:44:28.333Z,73.64
2023-04-18T02:46:59.776Z,73.74
2023-04-18T02:49:30.358Z,73.69
2023-04-18T02:52:00.625Z,73.72
2023-04-18T02:54:32.338Z,74.07
2023-04-18T02:57:09.649Z,74.46
2023-04-18T03:00:03.135Z,75.02
2023-04-18T03:03:00.622Z,75.40
2023-04-18T03:05:41.475Z,75.67
2023-04-18T03:08:13.330Z,75.55
2023-04-18T03:10:44.638Z,75.86
2023-04-18T03:13:16.228Z,76.19
2023-04-18T03:15:47.458Z,76.34
2023-04-18T03:18:19.370Z,76.58
2023-04-18T03:20:49.982Z,76.56
2023-04-18T03:23:21.389Z,76.47
2023-04-18T03:25:52.522Z,76.59
2023-04-18T03:28:24.678Z,76.36
2023-04-18T03:30:55.135Z,76.44
2023-04-18T03:33:26.201Z,76.30
2023-04-18T03:36:06.054Z,76.45
2023-04-18T03:38:37.249Z,76.13
2023-04-18T03:41:07.786Z,76.11
2023-04-18T03:43:40.028Z,75.98
2023-04-18T03:46:10.414Z,75.91
2023-04-18T03:48:41.219Z,75.84
2023-04-18T03:51:14.573Z,75.82
2023-04-18T03:53:46.218Z,76.30
2023-04-18T03:56:17.624Z,75.79
2023-04-18T03:58:54.531Z,75.59
2023-04-18T04:01:26.383Z,76.13
2023-04-18T04:03:58.341Z,75.72
2023-04-18T04:06:30.388Z,75.39
2023-04-18T04:09:01.958Z,75.47
2023-04-18T04:11:32.815Z,75.50
2023-04-18T04:14:03.748Z,75.83
2023-04-18T04:16:41.701Z,75.81
2023-04-18T04:19:14.681Z,75.97
2023-04-18T04:22:08.862Z,75.65
2023-04-18T04:24:40.222Z,75.83
2023-04-18T04:27:12.656Z,76.24
2023-04-18T04:29:45.265Z,76.22
2023-04-18T04:32:19.955Z,76.12
2023-04-18T04:34:52.199Z,76.31
2023-04-18T04:37:23.648Z,76.61
2023-04-18T04:40:08.997Z,76.36
2023-04-18T04:42:49.730Z,76.62
2023-04-18T04:45:25.712Z,76.27
2023-04-18T04:47:56.090Z,76.00
2023-04-18T04:50:27.871Z,75.98
2023-04-18T04:52:58.421Z,76.24
2023-04-18T04:55:29.656Z,75.98
2023-04-18T04:58:01.598Z,76.05
2023-04-18T05:00:55.231Z,75.95
2023-04-18T05:03:26.302Z,75.78
2023-04-18T05:05:58.438Z,75.36
2023-04-18T05:08:28.890Z,75.21
2023-04-18T05:10:59.086Z,75.11
2023-04-18T05:13:30.069Z,75.17
2023-04-18T05:16:01.537Z,75.38
2023-04-18T05:18:33.044Z,75.50
2023-04-18T05:21:06.537Z,75.64
2023-04-18T05:23:38.517Z,75.72
2023-04-18T05:26:10.507Z,75.88
2023-04-18T05:28:40.919Z,75.80
2023-04-18T05:31:12.769Z,75.98
2023-04-18T05:33:43.164Z,76.16
2023-04-18T05:36:14.623Z,76.24
2023-04-18T05:38:45.975Z,76.63
2023-04-18T05:41:17.997Z,76.83
2023-04-18T05:43:58.133Z,77.00
2023-04-18T05:46:36.469Z,76.93
2023-04-18T05:49:07.612Z,76.88
2023-04-18T05:51:38.927Z,77.10
2023-04-18T05:54:10.197Z,77.15
2023-04-18T05:56:42.007Z,77.25
2023-04-18T05:59:12.738Z,77.32
2023-04-18T06:01:43.021Z,77.60
2023-04-18T06:04:15.128Z,77.58
2023-04-18T06:06:45.818Z,77.73
2023-04-18T06:09:17.190Z,77.48
2023-04-18T06:11:49.195Z,77.62
2023-04-18T06:14:21.193Z,77.60
2023-04-18T06:16:52.059Z,77.35
2023-04-18T06:19:22.513Z,77.33
2023-04-18T06:21:57.642Z,77.31
2023-04-18T06:24:31.412Z,77.21
2023-04-18T06:27:03.092Z,76.96
2023-04-18T06:29:36.224Z,76.87
2023-04-18T06:32:08.373Z,76.78
2023-04-18T06:34:41.176Z,76.46
2023-04-18T06:37:12.416Z,76.35
2023-04-18T06:39:43.827Z,76.37
2023-04-18T06:42:15.195Z,76.54
2023-04-18T06:44:51.327Z,76.70
2023-04-18T06:47:21.881Z,76.92
2023-04-18T06:49:52.426Z,77.11
2023-04-18T06:52:23.258Z,77.32
2023-04-18T06:54:54.903Z,77.33
2023-04-18T06:57:26.003Z,77.30
2023-04-18T06:59:56.347Z,77.45
2023-04-18T07:02:27.253Z,77.52
2023-04-18T07:04:58.730Z,77.41
2023-04-18T07:07:28.855Z,77.39
2023-04-18T07:10:00.327Z,77.58
2023-04-18T07:12:30.790Z,77.75
2023-04-18T07:15:00.807Z,77.79
2023-04-18T07:17:31.335Z,77.86
2023-04-18T07:20:01.653Z,77.76
2023-04-18T07:22:32.514Z,77.80
2023-04-18T07:25:02.789Z,77.81
2023-04-18T07:27:33.946Z,77.69
2023-04-18T07:30:06.369Z,77.66
2023-04-18T07:32:38.141Z,77.43
2023-04-18T07:35:10.635Z,77.73
2023-04-18T07:37:41.350Z,77.48
2023-04-18T07:40:12.083Z,77.35
2023-04-18T07:42:43.626Z,77.13
2023-04-18T07:45:13.952Z,77.37
2023-04-18T07:47:45.856Z,77.38
2023-04-18T07:50:16.140Z,77.36
2023-04-18T07:52:49.885Z,77.35
2023-04-18T07:55:21.339Z,77.38
2023-04-18T07:57:52.803Z,77.45
2023-04-18T08:00:24.390Z,77.55
2023-04-18T08:02:54.996Z,77.58
2023-04-18T08:05:26.099Z,77.68
2023-04-18T08:07:56.574Z,77.65
2023-04-18T08:10:28.496Z,77.71
2023-04-18T08:12:58.652Z,77.44
2023-04-18T08:15:30.370Z,77.54
2023-04-18T08:18:02.233Z,77.50
2023-04-18T08:20:32.645Z,77.48
2023-04-18T08:23:08.617Z,77.45
2023-04-18T08:25:41.846Z,77.41
2023-04-18T08:28:13.192Z,77.27
2023-04-18T08:30:45.887Z,77.32
2023-04-18T08:33:16.617Z,77.38
2023-04-18T08:35:46.734Z,77.40
2023-04-18T08:38:19.587Z,77.43
2023-04-18T08:40:49.976Z,77.54
2023-04-18T08:43:21.785Z,77.38
2023-04-18T08:45:53.038Z,77.61
2023-04-18T08:48:25.208Z,77.82
2023-04-18T08:51:00.116Z,77.73
2023-04-18T08:53:31.225Z,77.65
2023-04-18T08:56:02.838Z,77.65
2023-04-18T08:58:36.045Z,77.81
2023-04-18T09:01:07.327Z,77.81
2023-04-18T09:03:43.787Z,77.62
2023-04-18T09:06:15.227Z,77.66
2023-04-18T09:08:56.520Z,77.57
2023-04-18T09:11:30.298Z,77.51
2023-04-18T09:16:29.048Z,77.48
2023-04-18T09:19:14.790Z,77.60
2023-04-18T09:21:48.480Z,77.59
2023-04-18T09:24:28.388Z,77.41
2023-04-18T09:27:01.796Z,77.21
2023-04-18T09:29:52.043Z,77.25
2023-04-18T09:32:28.244Z,77.09
2023-04-18T09:35:04.998Z,76.88
2023-04-18T09:37:35.824Z,76.70
2023-04-18T09:40:20.680Z,76.93
2023-04-18T09:42:54.675Z,76.72
2023-04-18T09:45:26.675Z,76.63
2023-04-18T09:47:57.691Z,76.54
2023-04-18T09:50:28.555Z,76.44
2023-04-18T09:53:00.212Z,76.39
2023-04-18T09:55:33.846Z,76.43
2023-04-18T09:58:07.931Z,76.33
2023-04-18T10:00:40.336Z,76.58
2023-04-18T10:03:13.686Z,76.19
2023-04-18T10:05:44.477Z,76.06
2023-04-18T10:08:16.513Z,76.14
2023-04-18T10:10:46.627Z,76.10
2023-04-18T10:13:17.629Z,75.97
2023-04-18T10:15:50.567Z,76.17
2023-04-18T10:18:26.481Z,76.02
2023-04-18T10:21:04.767Z,76.25
2023-04-18T10:23:37.667Z,75.78
2023-04-18T10:26:13.723Z,76.02
2023-04-18T10:28:55.827Z,75.67
2023-04-18T10:31:30.963Z,75.59
2023-04-18T10:34:18.317Z,75.50
2023-04-18T10:37:08.458Z,75.38
2023-04-18T10:40:00.589Z,75.54
2023-04-18T10:42:49.126Z,75.22
2023-04-18T10:45:20.925Z,74.64
2023-04-18T10:47:52.240Z,74.73
2023-04-18T10:50:23.283Z,74.15
2023-04-18T10:52:54.338Z,72.19
2023-04-18T10:55:31.152Z,56.81
2023-04-18T10:58:02.351Z,50.86
2023-04-18T11:00:33.675Z,47.96
2023-04-18T11:03:05.300Z,46.53
2023-04-18T11:05:37.404Z,48.62
2023-04-18T11:08:23.253Z,49.93
2023-04-18T11:11:06.287Z,55.45
2023-04-18T11:13:39.383Z,56.28
2023-04-18T11:16:10.505Z,57.97
2023-04-18T11:18:43.806Z,58.18
2023-04-18T11:21:14.892Z,58.43
2023-04-18T11:23:45.131Z,58.30
2023-04-18T11:26:18.675Z,58.77
2023-04-18T11:28:55.119Z,60.30
2023-04-18T11:31:27.184Z,57.09
2023-04-18T11:34:01.607Z,56.28
2023-04-18T11:36:36.515Z,57.47
2023-04-18T11:39:08.191Z,57.20
2023-04-18T11:41:39.164Z,57.68
2023-04-18T11:44:09.753Z,57.69
2023-04-18T11:46:41.663Z,56.81
2023-04-18T11:49:35.301Z,57.11
2023-04-18T11:52:14.849Z,55.08
2023-04-18T11:54:47.685Z,54.92
2023-04-18T11:57:28.067Z,58.23
2023-04-18T12:00:00.999Z,56.03
2023-04-18T12:02:48.566Z,54.93
2023-04-18T12:05:30.847Z,56.78
2023-04-18T12:08:14.657Z,57.99
2023-04-18T12:10:54.239Z,56.72
2023-04-18T12:13:33.792Z,55.84
2023-04-18T12:16:06.060Z,54.22
2023-04-18T12:18:37.928Z,54.97
2023-04-18T12:21:08.262Z,55.70
2023-04-18T12:23:44.209Z,56.34
2023-04-18T12:26:17.914Z,56.80
2023-04-18T12:28:49.475Z,55.10
2023-04-18T12:31:20.906Z,54.74
2023-04-18T12:33:53.382Z,55.88
2023-04-18T12:36:24.848Z,55.11
2023-04-18T12:38:55.056Z,53.48
2023-04-18T12:41:25.857Z,53.73
2023-04-18T12:43:56.796Z,52.01
2023-04-18T12:46:28.187Z,53.28
2023-04-18T12:49:00.149Z,53.32
2023-04-18T12:51:30.344Z,54.24
2023-04-18T12:54:00.739Z,54.49
2023-04-18T12:56:32.389Z,55.19
2023-04-18T12:59:03.292Z,54.29
2023-04-18T13:01:34.532Z,56.84
2023-04-18T13:04:12.293Z,56.55
2023-04-18T13:06:43.248Z,55.46
2023-04-18T13:09:14.904Z,55.34
2023-04-18T13:11:49.857Z,54.43
2023-04-18T13:14:21.060Z,53.28
2023-04-18T13:16:52.484Z,54.78
2023-04-18T13:19:23.769Z,54.49
2023-04-18T13:21:55.522Z,53.25
2023-04-18T13:24:25.764Z,50.07
2023-04-18T13:26:56.629Z,52.64
2023-04-18T13:29:26.795Z,50.88
2023-04-18T13:31:57.769Z,51.26
2023-04-18T13:34:28.527Z,50.87
2023-04-18T13:36:59.677Z,50.82
2023-04-18T13:39:30.455Z,51.24
2023-04-18T13:42:01.790Z,51.55
2023-04-18T13:44:33.264Z,51.09
2023-04-18T13:47:07.093Z,52.21
2023-04-18T13:49:38.587Z,49.85
2023-04-18T13:52:09.969Z,51.35
2023-04-18T13:54:40.226Z,51.36
2023-04-18T13:57:13.966Z,48.07
2023-04-18T13:59:44.366Z,50.12
2023-04-18T14:02:14.594Z,47.69
2023-04-18T14:04:45.039Z,54.44
2023-04-18T14:07:15.137Z,49.16
2023-04-18T14:09:45.973Z,46.72
2023-04-18T14:12:16.191Z,46.74
2023-04-18T14:14:47.484Z,46.99
2023-04-18T14:17:18.615Z,51.85
2023-04-18T14:20:27.990Z,52.87
2023-04-18T14:22:59.283Z,53.40
2023-04-18T14:25:32.034Z,50.91
2023-04-18T14:28:12.987Z,49.40
2023-04-18T14:30:44.011Z,53.54
2023-04-18T14:33:15.479Z,52.04
2023-04-18T14:35:46.488Z,51.34
2023-04-18T14:38:17.502Z,56.76
2023-04-18T14:40:49.315Z,54.83
2023-04-18T14:43:19.792Z,55.44
2023-04-18T14:45:50.981Z,55.99
2023-04-18T14:48:24.008Z,56.08
2023-04-18T14:51:02.330Z,52.71
2023-04-18T14:53:32.561Z,54.99
2023-04-18T14:56:03.581Z,53.66
2023-04-18T14:58:35.030Z,54.28
2023-04-18T15:01:05.626Z,56.57
2023-04-18T15:03:37.000Z,56.15
2023-04-18T15:06:08.802Z,54.97
2023-04-18T15:08:39.734Z,55.07
2023-04-18T15:11:11.500Z,55.01
2023-04-18T15:13:43.023Z,54.62
2023-04-18T15:16:13.612Z,56.50
2023-04-18T15:18:44.954Z,55.03
2023-04-18T15:21:15.328Z,54.72
2023-04-18T15:23:45.298Z,55.18
2023-04-18T15:26:15.490Z,55.56
2023-04-18T15:28:48.085Z,55.92
2023-04-18T15:31:19.996Z,55.82
2023-04-18T15:33:50.243Z,52.44
2023-04-18T15:36:20.297Z,55.87
2023-04-18T15:38:51.863Z,53.98
2023-04-18T15:41:23.681Z,53.38
2023-04-18T15:43:55.166Z,53.57
2023-04-18T15:46:26.703Z,51.92
2023-04-18T15:48:57.485Z,55.21
2023-04-18T15:51:32.410Z,53.86
2023-04-18T15:54:03.995Z,51.12
2023-04-18T15:56:35.553Z,53.03
2023-04-18T15:59:08.180Z,55.59
2023-04-18T16:01:39.814Z,52.39
2023-04-18T16:04:11.036Z,52.38
2023-04-18T16:06:41.821Z,54.27
2023-04-18T16:09:12.923Z,53.86
2023-04-18T16:11:43.396Z,56.60
2023-04-18T16:14:15.334Z,53.94
2023-04-18T16:16:45.876Z,56.03
2023-04-18T16:19:16.487Z,53.62
2023-04-18T16:21:49.378Z,53.82
2023-04-18T16:24:21.052Z,53.16
2023-04-18T16:26:52.511Z,53.49
2023-04-18T16:29:22.987Z,52.50
2023-04-18T16:31:53.614Z,52.81
2023-04-18T16:34:24.606Z,55.72
2023-04-18T16:36:58.821Z,54.56
2023-04-18T16:39:30.653Z,53.01
2023-04-18T16:42:00.919Z,55.22
2023-04-18T16:44:32.153Z,50.00
2023-04-18T16:47:07.427Z,52.22
2023-04-18T16:49:39.677Z,54.19
2023-04-18T16:52:11.340Z,52.54
2023-04-18T16:54:43.552Z,55.40
2023-04-18T16:57:15.186Z,51.18
2023-04-18T16:59:47.944Z,53.02
2023-04-18T17:02:18.321Z,53.39
2023-04-18T17:04:49.584Z,54.01
2023-04-18T17:07:19.874Z,52.15
2023-04-18T17:09:50.786Z,55.05
2023-04-18T17:12:22.026Z,57.29
2023-04-18T17:14:52.233Z,51.56
2023-04-18T17:17:22.321Z,52.28
2023-04-18T17:19:52.582Z,52.22
2023-04-18T17:22:22.833Z,50.11
2023-04-18T17:24:53.768Z,50.83
2023-04-18T17:27:36.953Z,51.34
2023-04-18T17:30:07.935Z,52.08
2023-04-18T17:32:38.157Z,52.12
2023-04-18T17:35:10.239Z,51.63
2023-04-18T17:37:40.787Z,50.43
2023-04-18T17:40:14.102Z,50.90
2023-04-18T17:42:46.014Z,53.41
2023-04-18T17:45:17.097Z,54.10
2023-04-18T17:47:48.508Z,52.44
2023-04-18T17:50:19.063Z,52.39
2023-04-18T17:52:49.683Z,52.51
2023-04-18T17:55:20.725Z,52.89
2023-04-18T17:57:51.886Z,54.88
2023-04-18T18:00:22.533Z,53.77
2023-04-18T18:02:52.793Z,53.32
2023-04-18T18:05:23.551Z,53.82
2023-04-18T18:07:55.491Z,54.05
2023-04-18T18:10:27.523Z,46.79
2023-04-18T18:12:58.746Z,42.04
2023-04-18T18:15:28.816Z,41.25
2023-04-18T18:17:59.633Z,46.21
2023-04-18T18:20:29.756Z,49.67
2023-04-18T18:23:01.828Z,52.48
2023-04-18T18:25:32.992Z,47.20
2023-04-18T18:28:06.295Z,52.53
2023-04-18T18:30:38.588Z,53.37
2023-04-18T18:33:09.104Z,51.66
2023-04-18T18:35:39.133Z,53.11
2023-04-18T18:38:10.616Z,54.52
2023-04-18T18:40:40.834Z,48.47
2023-04-18T18:43:11.274Z,44.77
2023-04-18T18:45:42.596Z,43.16
2023-04-18T18:48:13.015Z,42.55
2023-04-18T18:50:43.319Z,40.71
2023-04-18T18:53:13.739Z,41.89
2023-04-18T18:55:43.738Z,41.12
2023-04-18T18:58:14.641Z,40.27
2023-04-18T19:00:45.845Z,40.90
2023-04-18T19:03:20.391Z,41.84
2023-04-18T19:05:51.443Z,41.22
2023-04-18T19:08:23.474Z,40.21
2023-04-18T19:10:55.500Z,39.36
2023-04-18T19:13:26.531Z,40.89
2023-04-18T19:15:56.839Z,41.03
2023-04-18T19:18:27.262Z,40.55
2023-04-18T19:20:58.551Z,40.03
2023-04-18T19:23:29.217Z,40.35
2023-04-18T19:25:59.598Z,40.54
2023-04-18T19:28:30.608Z,39.00
2023-04-18T19:31:00.797Z,40.74
2023-04-18T19:33:33.102Z,39.61
2023-04-18T19:36:03.643Z,39.98
2023-04-18T19:38:35.154Z,39.72
2023-04-18T19:41:06.303Z,40.90
2023-04-18T19:43:37.781Z,40.67
2023-04-18T19:46:08.095Z,40.71
2023-04-18T19:48:39.645Z,40.73
2023-04-18T19:51:10.088Z,40.66
2023-04-18T19:53:40.288Z,41.79
2023-04-18T19:56:12.596Z,41.20
2023-04-18T19:58:48.121Z,42.71
2023-04-18T20:01:23.353Z,52.24
2023-04-18T20:03:56.588Z,57.13
2023-04-18T20:06:28.266Z,56.97
2023-04-18T20:08:59.462Z,60.35
2023-04-18T20:11:29.679Z,60.72
2023-04-18T20:14:00.518Z,60.23
2023-04-18T20:16:31.234Z,60.53
2023-04-18T20:19:03.771Z,60.42
2023-04-18T20:21:34.022Z,57.65
2023-04-18T20:24:05.018Z,58.32
2023-04-18T20:26:36.741Z,59.55
2023-04-18T20:29:07.764Z,61.16
2023-04-18T20:31:39.198Z,60.91
2023-04-18T20:34:11.818Z,58.67
2023-04-18T20:36:42.906Z,59.69
2023-04-18T20:39:16.348Z,57.69
2023-04-18T20:41:50.007Z,61.92
2023-04-18T20:44:23.625Z,60.67
2023-04-18T20:46:54.935Z,59.24
2023-04-18T20:49:25.319Z,58.02
2023-04-18T20:51:56.105Z,62.47
2023-04-18T20:54:27.050Z,60.13
2023-04-18T20:56:57.561Z,61.40
2023-04-18T20:59:28.857Z,58.49
2023-04-18T21:01:59.576Z,60.56
2023-04-18T21:04:30.152Z,61.19
2023-04-18T21:07:01.177Z,61.39
2023-04-18T21:09:35.332Z,60.21
2023-04-18T21:12:07.746Z,59.53
2023-04-18T21:14:38.049Z,59.59
2023-04-18T21:17:11.863Z,60.58
2023-04-18T21:19:42.277Z,60.63
2023-04-18T21:22:13.056Z,61.28
2023-04-18T21:24:44.706Z,61.37
2023-04-18T21:27:17.628Z,62.88
2023-04-18T21:29:48.763Z,61.03
2023-04-18T21:32:18.760Z,62.26
2023-04-18T21:34:48.977Z,61.29
2023-04-18T21:37:19.933Z,62.60
2023-04-18T21:39:51.420Z,63.18
2023-04-18T21:42:22.361Z,61.36
2023-04-18T21:44:52.926Z,61.41
2023-04-18T21:47:23.249Z,62.70
2023-04-18T21:49:53.386Z,62.92
2023-04-18T21:52:23.810Z,62.47
2023-04-18T21:54:54.567Z,63.02
2023-04-18T21:57:25.453Z,63.69
2023-04-18T21:59:56.945Z,64.09
2023-04-18T22:02:28.592Z,64.77
2023-04-18T22:04:59.363Z,65.22
2023-04-18T22:07:31.814Z,65.53
2023-04-18T22:10:03.226Z,65.68
2023-04-18T22:12:34.900Z,65.65
2023-04-18T22:15:05.399Z,65.71
2023-04-18T22:17:36.424Z,66.19
2023-04-18T22:20:07.674Z,66.41
2023-04-18T22:22:38.208Z,66.10
2023-04-18T22:25:12.464Z,65.88
2023-04-18T22:27:44.437Z,65.81
2023-04-18T22:30:16.085Z,66.05
2023-04-18T22:32:46.979Z,66.23
2023-04-18T22:35:17.812Z,65.97
2023-04-18T22:37:47.989Z,66.96
2023-04-18T22:40:18.495Z,66.67
2023-04-18T22:42:49.561Z,66.49
2023-04-18T22:45:21.220Z,66.35
2023-04-18T22:47:51.354Z,66.33
2023-04-18T22:50:21.533Z,66.33
2023-04-18T22:52:53.217Z,66.50
2023-04-18T22:55:24.253Z,66.62
2023-04-18T22:57:54.667Z,66.89
2023-04-18T23:00:25.255Z,66.93
2023-04-18T23:02:55.970Z,67.36
2023-04-18T23:05:26.949Z,67.15
2023-04-18T23:08:00.114Z,67.40
2023-04-18T23:10:30.714Z,67.68
2023-04-18T23:13:00.869Z,67.82
2023-04-18T23:15:31.798Z,68.14
2023-04-18T23:18:02.699Z,68.19
2023-04-18T23:20:34.031Z,68.67
2023-04-18T23:23:04.215Z,68.96
2023-04-18T23:25:37.380Z,69.18
2023-04-18T23:28:09.074Z,69.92
2023-04-18T23:30:39.528Z,69.51
2023-04-18T23:33:10.668Z,69.59
2023-04-18T23:35:41.123Z,69.63
2023-04-18T23:38:11.263Z,69.06
2023-04-18T23:40:41.571Z,69.47
2023-04-18T23:43:11.603Z,69.77
2023-04-18T23:45:41.661Z,69.78
2023-04-18T23:48:11.835Z,69.36
2023-04-18T23:50:53.937Z,69.90
2023-04-18T23:53:25.171Z,70.27
2023-04-18T23:55:56.523Z,70.29
2023-04-18T23:58:28.842Z,70.24
